sensor_id;sensor_type;location;lat;lon;timestamp;temperature;humidity
11083;DHT22;5595;50.186;8.468;2023-10-19T00:02:13;10.60;99.90
11083;DHT22;5595;50.186;8.468;2023-10-19T00:04:41;10.60;99.90
11083;DHT22;5595;50.186;8.468;2023-10-19T00:07:08;10.60;99.90
11083;DHT22;5595;50.186;8.468;2023-10-19T00:09:41;10.70;99.90
11083;DHT22;5595;50.186;8.468;2023-10-19T00:12:10;10.60;99.90
11083;DHT22;5595;50.186;8.468;2023-10-19T00:14:38;10.70;99.90
11083;DHT22;5595;50.186;8.468;2023-10-19T00:17:05;10.70;99.90
11083;DHT22;5595;50.186;8.468;2023-10-19T00:19:36;10.70;99.90
11083;DHT22;5595;50.186;8.468;2023-10-19T00:22:05;10.70;99.90
11083;DHT22;5595;50.186;8.468;2023-10-19T00:24:36;10.70;99.90
11083;DHT22;5595;50.186;8.468;2023-10-19T00:27:02;10.70;99.90
11083;DHT22;5595;50.186;8.468;2023-10-19T00:29:41;10.80;99.90
11083;DHT22;5595;50.186;8.468;2023-10-19T00:32:15;10.80;99.90
11083;DHT22;5595;50.186;8.468;2023-10-19T00:34:44;10.80;99.90
11083;DHT22;5595;50.186;8.468;2023-10-19T00:37:18;10.90;99.90
11083;DHT22;5595;50.186;8.468;2023-10-19T00:39:51;10.80;99.90
11083;DHT22;5595;50.186;8.468;2023-10-19T00:42:21;10.80;99.90
11083;DHT22;5595;50.186;8.468;2023-10-19T00:44:51;10.80;99.90
11083;DHT22;5595;50.186;8.468;2023-10-19T00:47:28;10.80;99.90
11083;DHT22;5595;50.186;8.468;2023-10-19T00:50:01;10.80;99.90
11083;DHT22;5595;50.186;8.468;2023-10-19T00:52:31;10.80;99.90
11083;DHT22;5595;50.186;8.468;2023-10-19T00:55:07;10.90;99.90
11083;DHT22;5595;50.186;8.468;2023-10-19T00:57:35;10.90;99.90
11083;DHT22;5595;50.186;8.468;2023-10-19T01:00:04;11.00;99.90
11083;DHT22;5595;50.186;8.468;2023-10-19T01:02:39;11.00;99.90
11083;DHT22;5595;50.186;8.468;2023-10-19T01:05:11;11.00;99.90
11083;DHT22;5595;50.186;8.468;2023-10-19T01:07:40;11.00;99.90
11083;DHT22;5595;50.186;8.468;2023-10-19T01:10:08;11.00;99.90
11083;DHT22;5595;50.186;8.468;2023-10-19T01:12:37;11.00;99.90
11083;DHT22;5595;50.186;8.468;2023-10-19T01:15:07;11.00;99.90
11083;DHT22;5595;50.186;8.468;2023-10-19T01:17:41;11.10;99.90
11083;DHT22;5595;50.186;8.468;2023-10-19T01:20:10;11.10;99.90
11083;DHT22;5595;50.186;8.468;2023-10-19T01:22:57;11.10;99.90
11083;DHT22;5595;50.186;8.468;2023-10-19T01:25:43;11.20;99.90
11083;DHT22;5595;50.186;8.468;2023-10-19T01:28:13;11.30;99.90
11083;DHT22;5595;50.186;8.468;2023-10-19T01:30:42;11.20;99.90
11083;DHT22;5595;50.186;8.468;2023-10-19T01:33:10;11.20;99.90
11083;DHT22;5595;50.186;8.468;2023-10-19T01:35:41;11.20;99.90
11083;DHT22;5595;50.186;8.468;2023-10-19T01:38:27;11.20;99.90
11083;DHT22;5595;50.186;8.468;2023-10-19T01:40:56;11.30;99.90
11083;DHT22;5595;50.186;8.468;2023-10-19T01:43:25;11.30;99.90
11083;DHT22;5595;50.186;8.468;2023-10-19T01:45:55;11.30;99.90
11083;DHT22;5595;50.186;8.468;2023-10-19T01:48:21;11.30;99.90
11083;DHT22;5595;50.186;8.468;2023-10-19T01:50:58;11.30;99.90
11083;DHT22;5595;50.186;8.468;2023-10-19T01:53:24;11.30;99.90
11083;DHT22;5595;50.186;8.468;2023-10-19T01:55:53;11.30;99.90
11083;DHT22;5595;50.186;8.468;2023-10-19T01:58:24;11.30;99.90
11083;DHT22;5595;50.186;8.468;2023-10-19T02:00:51;11.30;99.90
11083;DHT22;5595;50.186;8.468;2023-10-19T02:03:21;11.30;99.90
11083;DHT22;5595;50.186;8.468;2023-10-19T02:05:57;11.20;99.90
11083;DHT22;5595;50.186;8.468;2023-10-19T02:08:24;11.30;99.90
11083;DHT22;5595;50.186;8.468;2023-10-19T02:10:53;11.30;99.90
11083;DHT22;5595;50.186;8.468;2023-10-19T02:13:21;11.30;99.90
11083;DHT22;5595;50.186;8.468;2023-10-19T02:15:47;11.10;99.90
11083;DHT22;5595;50.186;8.468;2023-10-19T02:18:16;11.20;99.90
11083;DHT22;5595;50.186;8.468;2023-10-19T02:20:43;11.20;99.90
11083;DHT22;5595;50.186;8.468;2023-10-19T02:23:14;11.30;99.90
11083;DHT22;5595;50.186;8.468;2023-10-19T02:25:40;11.20;99.90
11083;DHT22;5595;50.186;8.468;2023-10-19T02:28:09;11.30;99.90
11083;DHT22;5595;50.186;8.468;2023-10-19T02:30:34;11.30;99.90
11083;DHT22;5595;50.186;8.468;2023-10-19T02:33:01;11.30;99.90
11083;DHT22;5595;50.186;8.468;2023-10-19T02:35:29;11.30;99.90
11083;DHT22;5595;50.186;8.468;2023-10-19T02:37:56;11.30;99.90
11083;DHT22;5595;50.186;8.468;2023-10-19T02:40:23;11.20;99.90
11083;DHT22;5595;50.186;8.468;2023-10-19T02:42:50;11.30;99.90
11083;DHT22;5595;50.186;8.468;2023-10-19T02:45:20;11.20;99.90
11083;DHT22;5595;50.186;8.468;2023-10-19T02:47:46;11.30;99.90
11083;DHT22;5595;50.186;8.468;2023-10-19T02:50:13;11.30;99.90
11083;DHT22;5595;50.186;8.468;2023-10-19T02:52:42;11.30;99.90
11083;DHT22;5595;50.186;8.468;2023-10-19T02:55:09;11.30;99.90
11083;DHT22;5595;50.186;8.468;2023-10-19T02:57:36;11.30;99.90
11083;DHT22;5595;50.186;8.468;2023-10-19T03:00:05;11.30;99.90
11083;DHT22;5595;50.186;8.468;2023-10-19T03:02:38;11.40;99.90
11083;DHT22;5595;50.186;8.468;2023-10-19T03:05:06;11.40;99.90
11083;DHT22;5595;50.186;8.468;2023-10-19T03:07:38;11.40;99.90
11083;DHT22;5595;50.186;8.468;2023-10-19T03:10:06;11.40;99.90
11083;DHT22;5595;50.186;8.468;2023-10-19T03:12:32;11.30;99.90
11083;DHT22;5595;50.186;8.468;2023-10-19T03:14:59;11.30;99.90
11083;DHT22;5595;50.186;8.468;2023-10-19T03:17:26;11.40;99.90
11083;DHT22;5595;50.186;8.468;2023-10-19T03:19:56;11.30;99.90
11083;DHT22;5595;50.186;8.468;2023-10-19T03:22:22;11.40;99.90
11083;DHT22;5595;50.186;8.468;2023-10-19T03:24:50;11.40;99.90
11083;DHT22;5595;50.186;8.468;2023-10-19T03:27:25;11.30;99.90
11083;DHT22;5595;50.186;8.468;2023-10-19T03:29:52;11.40;99.90
11083;DHT22;5595;50.186;8.468;2023-10-19T03:32:21;11.40;99.90
11083;DHT22;5595;50.186;8.468;2023-10-19T03:34:52;11.40;99.90
11083;DHT22;5595;50.186;8.468;2023-10-19T03:37:22;11.40;99.90
11083;DHT22;5595;50.186;8.468;2023-10-19T03:39:51;11.40;99.90
11083;DHT22;5595;50.186;8.468;2023-10-19T03:42:18;11.40;99.90
11083;DHT22;5595;50.186;8.468;2023-10-19T03:44:46;11.40;99.90
11083;DHT22;5595;50.186;8.468;2023-10-19T03:47:19;11.40;99.90
11083;DHT22;5595;50.186;8.468;2023-10-19T03:49:48;11.40;99.90
11083;DHT22;5595;50.186;8.468;2023-10-19T03:52:16;11.40;99.90
11083;DHT22;5595;50.186;8.468;2023-10-19T03:54:53;11.40;99.90
11083;DHT22;5595;50.186;8.468;2023-10-19T03:57:20;11.50;99.90
11083;DHT22;5595;50.186;8.468;2023-10-19T03:59:48;11.30;99.90
11083;DHT22;5595;50.186;8.468;2023-10-19T04:02:17;11.30;99.90
11083;DHT22;5595;50.186;8.468;2023-10-19T04:04:46;11.40;99.90
11083;DHT22;5595;50.186;8.468;2023-10-19T04:07:14;11.40;99.90
11083;DHT22;5595;50.186;8.468;2023-10-19T04:09:46;11.40;99.90
11083;DHT22;5595;50.186;8.468;2023-10-19T04:12:27;11.40;99.90
11083;DHT22;5595;50.186;8.468;2023-10-19T04:14:55;11.40;99.90
11083;DHT22;5595;50.186;8.468;2023-10-19T04:17:23;11.40;99.90
11083;DHT22;5595;50.186;8.468;2023-10-19T04:19:50;11.40;99.90
11083;DHT22;5595;50.186;8.468;2023-10-19T04:22:18;11.40;99.90
11083;DHT22;5595;50.186;8.468;2023-10-19T04:24:49;11.50;99.90
11083;DHT22;5595;50.186;8.468;2023-10-19T04:27:16;11.40;99.90
11083;DHT22;5595;50.186;8.468;2023-10-19T04:29:44;11.40;99.90
11083;DHT22;5595;50.186;8.468;2023-10-19T04:32:11;11.50;99.90
11083;DHT22;5595;50.186;8.468;2023-10-19T04:34:39;11.50;99.90
11083;DHT22;5595;50.186;8.468;2023-10-19T04:37:07;11.50;99.90
11083;DHT22;5595;50.186;8.468;2023-10-19T04:39:38;11.50;99.90
11083;DHT22;5595;50.186;8.468;2023-10-19T04:42:04;11.60;99.90
11083;DHT22;5595;50.186;8.468;2023-10-19T04:44:31;11.60;99.90
11083;DHT22;5595;50.186;8.468;2023-10-19T04:47:01;11.60;99.90
11083;DHT22;5595;50.186;8.468;2023-10-19T04:49:28;11.60;99.90
11083;DHT22;5595;50.186;8.468;2023-10-19T04:51:54;11.50;99.90
11083;DHT22;5595;50.186;8.468;2023-10-19T04:54:21;11.60;99.90
11083;DHT22;5595;50.186;8.468;2023-10-19T04:56:48;11.60;99.90
11083;DHT22;5595;50.186;8.468;2023-10-19T04:59:15;11.60;99.90
11083;DHT22;5595;50.186;8.468;2023-10-19T05:01:42;11.60;99.90
11083;DHT22;5595;50.186;8.468;2023-10-19T05:04:10;11.60;99.90
11083;DHT22;5595;50.186;8.468;2023-10-19T05:06:38;11.60;99.90
11083;DHT22;5595;50.186;8.468;2023-10-19T05:09:05;11.60;99.90
11083;DHT22;5595;50.186;8.468;2023-10-19T05:11:32;11.60;99.90
11083;DHT22;5595;50.186;8.468;2023-10-19T05:13:59;11.60;99.90
11083;DHT22;5595;50.186;8.468;2023-10-19T05:16:26;11.60;99.90
11083;DHT22;5595;50.186;8.468;2023-10-19T05:18:53;11.60;99.90
11083;DHT22;5595;50.186;8.468;2023-10-19T05:21:21;11.60;99.90
11083;DHT22;5595;50.186;8.468;2023-10-19T05:23:48;11.70;99.90
11083;DHT22;5595;50.186;8.468;2023-10-19T05:26:15;11.60;99.90
11083;DHT22;5595;50.186;8.468;2023-10-19T05:28:42;11.70;99.90
11083;DHT22;5595;50.186;8.468;2023-10-19T05:31:09;11.60;99.90
11083;DHT22;5595;50.186;8.468;2023-10-19T05:33:37;11.60;99.90
11083;DHT22;5595;50.186;8.468;2023-10-19T05:36:05;11.60;99.90
11083;DHT22;5595;50.186;8.468;2023-10-19T05:38:33;11.50;99.90
11083;DHT22;5595;50.186;8.468;2023-10-19T05:41:00;11.50;99.90
11083;DHT22;5595;50.186;8.468;2023-10-19T05:43:28;11.50;99.90
11083;DHT22;5595;50.186;8.468;2023-10-19T05:45:56;11.50;99.90
11083;DHT22;5595;50.186;8.468;2023-10-19T05:48:22;11.50;99.90
11083;DHT22;5595;50.186;8.468;2023-10-19T05:50:50;11.50;99.90
11083;DHT22;5595;50.186;8.468;2023-10-19T05:53:16;11.50;99.90
11083;DHT22;5595;50.186;8.468;2023-10-19T05:55:49;11.50;99.90
11083;DHT22;5595;50.186;8.468;2023-10-19T05:58:18;11.50;99.90
11083;DHT22;5595;50.186;8.468;2023-10-19T06:00:45;11.50;99.90
11083;DHT22;5595;50.186;8.468;2023-10-19T06:03:12;11.50;99.90
11083;DHT22;5595;50.186;8.468;2023-10-19T06:05:39;11.50;99.90
11083;DHT22;5595;50.186;8.468;2023-10-19T06:08:06;11.50;99.90
11083;DHT22;5595;50.186;8.468;2023-10-19T06:10:34;11.50;99.90
11083;DHT22;5595;50.186;8.468;2023-10-19T06:13:06;11.50;99.90
11083;DHT22;5595;50.186;8.468;2023-10-19T06:15:35;11.50;99.90
11083;DHT22;5595;50.186;8.468;2023-10-19T06:18:02;11.50;99.90
11083;DHT22;5595;50.186;8.468;2023-10-19T06:20:30;11.60;99.90
11083;DHT22;5595;50.186;8.468;2023-10-19T06:22:57;11.60;99.90
11083;DHT22;5595;50.186;8.468;2023-10-19T06:25:30;11.60;99.90
11083;DHT22;5595;50.186;8.468;2023-10-19T06:27:57;11.70;99.90
11083;DHT22;5595;50.186;8.468;2023-10-19T06:30:26;11.70;99.90
11083;DHT22;5595;50.186;8.468;2023-10-19T06:32:55;11.70;99.90
11083;DHT22;5595;50.186;8.468;2023-10-19T06:35:25;11.80;99.90
11083;DHT22;5595;50.186;8.468;2023-10-19T06:37:53;11.80;99.90
11083;DHT22;5595;50.186;8.468;2023-10-19T06:40:21;11.90;99.90
11083;DHT22;5595;50.186;8.468;2023-10-19T06:42:48;11.90;99.90
11083;DHT22;5595;50.186;8.468;2023-10-19T06:45:16;11.90;99.90
11083;DHT22;5595;50.186;8.468;2023-10-19T06:47:47;12.00;99.90
11083;DHT22;5595;50.186;8.468;2023-10-19T06:50:16;12.00;99.90
11083;DHT22;5595;50.186;8.468;2023-10-19T06:52:44;12.10;99.90
11083;DHT22;5595;50.186;8.468;2023-10-19T06:55:15;12.10;99.90
11083;DHT22;5595;50.186;8.468;2023-10-19T06:57:46;12.10;99.90
11083;DHT22;5595;50.186;8.468;2023-10-19T07:00:15;12.20;99.90
11083;DHT22;5595;50.186;8.468;2023-10-19T07:02:47;12.20;99.90
11083;DHT22;5595;50.186;8.468;2023-10-19T07:05:15;12.30;99.90
11083;DHT22;5595;50.186;8.468;2023-10-19T07:07:46;12.30;99.90
11083;DHT22;5595;50.186;8.468;2023-10-19T07:10:13;12.40;99.90
11083;DHT22;5595;50.186;8.468;2023-10-19T07:12:42;12.40;99.90
11083;DHT22;5595;50.186;8.468;2023-10-19T07:15:09;12.40;99.90
11083;DHT22;5595;50.186;8.468;2023-10-19T07:17:39;12.50;99.90
11083;DHT22;5595;50.186;8.468;2023-10-19T07:20:10;12.60;99.90
11083;DHT22;5595;50.186;8.468;2023-10-19T07:22:48;12.60;99.90
11083;DHT22;5595;50.186;8.468;2023-10-19T07:25:15;12.60;99.90
11083;DHT22;5595;50.186;8.468;2023-10-19T07:27:46;12.70;99.90
11083;DHT22;5595;50.186;8.468;2023-10-19T07:30:13;12.80;99.90
11083;DHT22;5595;50.186;8.468;2023-10-19T07:32:41;12.80;99.90
11083;DHT22;5595;50.186;8.468;2023-10-19T07:35:09;12.80;99.90
11083;DHT22;5595;50.186;8.468;2023-10-19T07:37:36;12.90;99.90
11083;DHT22;5595;50.186;8.468;2023-10-19T07:40:05;13.00;99.90
11083;DHT22;5595;50.186;8.468;2023-10-19T07:42:32;13.00;99.90
11083;DHT22;5595;50.186;8.468;2023-10-19T07:45:01;13.10;99.90
11083;DHT22;5595;50.186;8.468;2023-10-19T07:47:28;13.20;99.90
11083;DHT22;5595;50.186;8.468;2023-10-19T07:49:55;13.20;99.90
11083;DHT22;5595;50.186;8.468;2023-10-19T07:52:23;13.30;99.90
11083;DHT22;5595;50.186;8.468;2023-10-19T07:54:50;13.30;99.90
11083;DHT22;5595;50.186;8.468;2023-10-19T07:57:19;13.40;99.90
11083;DHT22;5595;50.186;8.468;2023-10-19T07:59:47;13.40;99.90
11083;DHT22;5595;50.186;8.468;2023-10-19T08:02:14;13.40;99.90
11083;DHT22;5595;50.186;8.468;2023-10-19T08:04:40;13.40;99.90
11083;DHT22;5595;50.186;8.468;2023-10-19T08:07:07;13.40;99.90
11083;DHT22;5595;50.186;8.468;2023-10-19T08:09:37;13.40;99.90
11083;DHT22;5595;50.186;8.468;2023-10-19T08:12:04;13.50;99.90
11083;DHT22;5595;50.186;8.468;2023-10-19T08:14:31;13.50;99.90
11083;DHT22;5595;50.186;8.468;2023-10-19T08:16:58;13.50;99.90
11083;DHT22;5595;50.186;8.468;2023-10-19T08:19:24;13.60;99.90
11083;DHT22;5595;50.186;8.468;2023-10-19T08:21:52;13.60;99.90
11083;DHT22;5595;50.186;8.468;2023-10-19T08:24:19;13.60;99.90
11083;DHT22;5595;50.186;8.468;2023-10-19T08:26:47;13.70;99.90
11083;DHT22;5595;50.186;8.468;2023-10-19T08:29:16;13.70;99.90
11083;DHT22;5595;50.186;8.468;2023-10-19T08:31:45;13.70;99.90
11083;DHT22;5595;50.186;8.468;2023-10-19T08:34:12;13.70;99.90
11083;DHT22;5595;50.186;8.468;2023-10-19T08:36:39;13.90;99.90
11083;DHT22;5595;50.186;8.468;2023-10-19T08:39:07;14.00;99.90
11083;DHT22;5595;50.186;8.468;2023-10-19T08:41:35;14.10;99.90
11083;DHT22;5595;50.186;8.468;2023-10-19T08:44:05;14.20;99.90
11083;DHT22;5595;50.186;8.468;2023-10-19T08:46:40;14.40;99.90
11083;DHT22;5595;50.186;8.468;2023-10-19T08:49:10;14.70;99.90
11083;DHT22;5595;50.186;8.468;2023-10-19T08:51:38;14.80;99.90
11083;DHT22;5595;50.186;8.468;2023-10-19T08:54:06;14.90;99.90
11083;DHT22;5595;50.186;8.468;2023-10-19T08:56:36;15.00;99.90
11083;DHT22;5595;50.186;8.468;2023-10-19T08:59:04;15.20;99.90
11083;DHT22;5595;50.186;8.468;2023-10-19T09:01:32;15.30;99.90
11083;DHT22;5595;50.186;8.468;2023-10-19T09:04:03;15.50;99.90
11083;DHT22;5595;50.186;8.468;2023-10-19T09:06:33;15.60;99.90
11083;DHT22;5595;50.186;8.468;2023-10-19T09:09:07;15.70;99.90
11083;DHT22;5595;50.186;8.468;2023-10-19T09:11:36;15.80;99.90
11083;DHT22;5595;50.186;8.468;2023-10-19T09:14:05;15.80;99.90
11083;DHT22;5595;50.186;8.468;2023-10-19T09:16:32;15.80;99.90
11083;DHT22;5595;50.186;8.468;2023-10-19T09:18:59;15.80;99.90
11083;DHT22;5595;50.186;8.468;2023-10-19T09:21:26;15.80;99.90
11083;DHT22;5595;50.186;8.468;2023-10-19T09:23:55;15.80;99.90
11083;DHT22;5595;50.186;8.468;2023-10-19T09:26:23;15.80;99.90
11083;DHT22;5595;50.186;8.468;2023-10-19T09:28:52;15.90;99.90
11083;DHT22;5595;50.186;8.468;2023-10-19T09:31:21;15.90;99.90
11083;DHT22;5595;50.186;8.468;2023-10-19T09:33:50;15.90;99.90
11083;DHT22;5595;50.186;8.468;2023-10-19T09:36:18;15.90;99.90
11083;DHT22;5595;50.186;8.468;2023-10-19T09:38:48;15.80;99.90
11083;DHT22;5595;50.186;8.468;2023-10-19T09:41:17;15.80;99.90
11083;DHT22;5595;50.186;8.468;2023-10-19T09:43:46;15.80;99.90
11083;DHT22;5595;50.186;8.468;2023-10-19T09:46:23;15.80;99.90
11083;DHT22;5595;50.186;8.468;2023-10-19T09:48:50;15.80;99.90
11083;DHT22;5595;50.186;8.468;2023-10-19T09:51:19;15.70;99.90
11083;DHT22;5595;50.186;8.468;2023-10-19T09:53:49;15.70;99.90
11083;DHT22;5595;50.186;8.468;2023-10-19T09:56:21;15.60;99.90
11083;DHT22;5595;50.186;8.468;2023-10-19T09:58:51;15.50;99.90
11083;DHT22;5595;50.186;8.468;2023-10-19T10:01:19;15.50;99.90
11083;DHT22;5595;50.186;8.468;2023-10-19T10:03:50;15.50;99.90
11083;DHT22;5595;50.186;8.468;2023-10-19T10:06:27;15.50;99.90
11083;DHT22;5595;50.186;8.468;2023-10-19T10:08:55;15.50;99.90
11083;DHT22;5595;50.186;8.468;2023-10-19T10:11:24;15.50;99.90
11083;DHT22;5595;50.186;8.468;2023-10-19T10:13:52;15.60;99.90
11083;DHT22;5595;50.186;8.468;2023-10-19T10:16:22;15.60;99.90
11083;DHT22;5595;50.186;8.468;2023-10-19T10:18:53;15.50;99.90
11083;DHT22;5595;50.186;8.468;2023-10-19T10:21:22;15.40;99.90
11083;DHT22;5595;50.186;8.468;2023-10-19T10:23:54;15.40;99.90
11083;DHT22;5595;50.186;8.468;2023-10-19T10:26:23;15.30;99.90
11083;DHT22;5595;50.186;8.468;2023-10-19T10:29:11;15.10;99.90
11083;DHT22;5595;50.186;8.468;2023-10-19T10:31:44;15.10;99.90
11083;DHT22;5595;50.186;8.468;2023-10-19T10:34:42;15.00;99.90
11083;DHT22;5595;50.186;8.468;2023-10-19T10:37:10;15.00;99.90
11083;DHT22;5595;50.186;8.468;2023-10-19T10:39:39;15.00;99.90
11083;DHT22;5595;50.186;8.468;2023-10-19T10:42:08;15.00;99.90
11083;DHT22;5595;50.186;8.468;2023-10-19T10:44:39;15.00;99.90
11083;DHT22;5595;50.186;8.468;2023-10-19T10:47:07;15.00;99.90
11083;DHT22;5595;50.186;8.468;2023-10-19T10:49:46;15.10;99.90
11083;DHT22;5595;50.186;8.468;2023-10-19T10:52:26;15.10;99.90
11083;DHT22;5595;50.186;8.468;2023-10-19T10:54:54;15.10;99.90
11083;DHT22;5595;50.186;8.468;2023-10-19T10:57:21;15.30;99.90
11083;DHT22;5595;50.186;8.468;2023-10-19T11:00:01;15.40;99.90
11083;DHT22;5595;50.186;8.468;2023-10-19T11:02:28;15.40;99.90
11083;DHT22;5595;50.186;8.468;2023-10-19T11:04:56;15.40;99.90
11083;DHT22;5595;50.186;8.468;2023-10-19T11:07:23;15.50;99.90
11083;DHT22;5595;50.186;8.468;2023-10-19T11:09:51;15.50;99.90
11083;DHT22;5595;50.186;8.468;2023-10-19T11:12:17;15.50;99.90
11083;DHT22;5595;50.186;8.468;2023-10-19T11:14:54;15.50;99.90
11083;DHT22;5595;50.186;8.468;2023-10-19T11:17:21;15.50;99.90
11083;DHT22;5595;50.186;8.468;2023-10-19T11:19:55;15.50;99.90
11083;DHT22;5595;50.186;8.468;2023-10-19T11:22:23;15.50;99.90
11083;DHT22;5595;50.186;8.468;2023-10-19T11:24:52;15.60;99.90
11083;DHT22;5595;50.186;8.468;2023-10-19T11:27:25;15.60;99.90
11083;DHT22;5595;50.186;8.468;2023-10-19T11:29:56;15.60;99.90
11083;DHT22;5595;50.186;8.468;2023-10-19T11:32:23;15.60;99.90
11083;DHT22;5595;50.186;8.468;2023-10-19T11:34:52;15.70;99.90
11083;DHT22;5595;50.186;8.468;2023-10-19T11:37:20;15.80;99.90
11083;DHT22;5595;50.186;8.468;2023-10-19T11:39:47;15.80;99.90
11083;DHT22;5595;50.186;8.468;2023-10-19T11:42:15;15.80;99.90
11083;DHT22;5595;50.186;8.468;2023-10-19T11:44:43;15.90;99.90
11083;DHT22;5595;50.186;8.468;2023-10-19T11:47:10;15.90;99.90
11083;DHT22;5595;50.186;8.468;2023-10-19T11:49:37;15.80;99.90
11083;DHT22;5595;50.186;8.468;2023-10-19T11:52:04;15.80;99.90
11083;DHT22;5595;50.186;8.468;2023-10-19T11:54:34;15.80;99.90
11083;DHT22;5595;50.186;8.468;2023-10-19T11:57:02;15.80;99.90
11083;DHT22;5595;50.186;8.468;2023-10-19T11:59:29;15.80;99.90
11083;DHT22;5595;50.186;8.468;2023-10-19T12:01:55;15.80;99.90
11083;DHT22;5595;50.186;8.468;2023-10-19T12:04:24;15.80;99.90
11083;DHT22;5595;50.186;8.468;2023-10-19T12:06:51;15.80;99.90
11083;DHT22;5595;50.186;8.468;2023-10-19T12:09:18;15.90;99.90
11083;DHT22;5595;50.186;8.468;2023-10-19T12:11:51;15.90;99.90
11083;DHT22;5595;50.186;8.468;2023-10-19T12:14:20;16.00;99.90
11083;DHT22;5595;50.186;8.468;2023-10-19T12:16:47;16.10;99.90
11083;DHT22;5595;50.186;8.468;2023-10-19T12:19:14;16.20;99.90
11083;DHT22;5595;50.186;8.468;2023-10-19T12:21:42;16.30;99.90
11083;DHT22;5595;50.186;8.468;2023-10-19T12:24:10;16.30;99.90
11083;DHT22;5595;50.186;8.468;2023-10-19T12:26:37;16.30;99.90
11083;DHT22;5595;50.186;8.468;2023-10-19T12:29:05;16.40;99.90
11083;DHT22;5595;50.186;8.468;2023-10-19T12:31:38;16.40;99.90
11083;DHT22;5595;50.186;8.468;2023-10-19T12:34:06;16.50;99.90
11083;DHT22;5595;50.186;8.468;2023-10-19T12:36:33;16.60;99.90
11083;DHT22;5595;50.186;8.468;2023-10-19T12:39:01;16.60;99.90
11083;DHT22;5595;50.186;8.468;2023-10-19T12:41:31;16.60;99.90
11083;DHT22;5595;50.186;8.468;2023-10-19T12:43:58;16.70;99.90
11083;DHT22;5595;50.186;8.468;2023-10-19T12:46:29;16.80;99.90
11083;DHT22;5595;50.186;8.468;2023-10-19T12:48:56;16.80;99.90
11083;DHT22;5595;50.186;8.468;2023-10-19T12:51:24;16.80;99.90
11083;DHT22;5595;50.186;8.468;2023-10-19T12:53:51;16.80;99.90
11083;DHT22;5595;50.186;8.468;2023-10-19T12:56:18;16.70;99.90
11083;DHT22;5595;50.186;8.468;2023-10-19T12:58:45;16.60;99.90
11083;DHT22;5595;50.186;8.468;2023-10-19T13:01:13;16.50;99.90
11083;DHT22;5595;50.186;8.468;2023-10-19T13:03:46;16.40;99.90
11083;DHT22;5595;50.186;8.468;2023-10-19T13:06:15;16.30;99.90
11083;DHT22;5595;50.186;8.468;2023-10-19T13:09:03;16.20;99.90
11083;DHT22;5595;50.186;8.468;2023-10-19T13:11:30;16.20;99.90
11083;DHT22;5595;50.186;8.468;2023-10-19T13:13:58;16.20;99.90
11083;DHT22;5595;50.186;8.468;2023-10-19T13:16:26;16.20;99.90
11083;DHT22;5595;50.186;8.468;2023-10-19T13:18:54;16.10;99.90
11083;DHT22;5595;50.186;8.468;2023-10-19T13:21:21;16.10;99.90
11083;DHT22;5595;50.186;8.468;2023-10-19T13:23:53;16.10;99.90
11083;DHT22;5595;50.186;8.468;2023-10-19T13:26:20;16.00;99.90
11083;DHT22;5595;50.186;8.468;2023-10-19T13:28:48;15.90;99.90
11083;DHT22;5595;50.186;8.468;2023-10-19T13:31:18;16.00;99.90
11083;DHT22;5595;50.186;8.468;2023-10-19T13:33:47;16.00;99.90
11083;DHT22;5595;50.186;8.468;2023-10-19T13:36:15;16.10;99.90
11083;DHT22;5595;50.186;8.468;2023-10-19T13:38:42;16.10;99.90
11083;DHT22;5595;50.186;8.468;2023-10-19T13:41:09;16.10;99.90
11083;DHT22;5595;50.186;8.468;2023-10-19T13:43:37;16.10;99.90
11083;DHT22;5595;50.186;8.468;2023-10-19T13:46:03;16.00;99.90
11083;DHT22;5595;50.186;8.468;2023-10-19T13:48:31;16.00;99.90
11083;DHT22;5595;50.186;8.468;2023-10-19T13:50:58;15.90;99.90
11083;DHT22;5595;50.186;8.468;2023-10-19T13:53:32;15.90;99.90
11083;DHT22;5595;50.186;8.468;2023-10-19T13:55:59;15.90;99.90
11083;DHT22;5595;50.186;8.468;2023-10-19T13:58:26;15.90;99.90
11083;DHT22;5595;50.186;8.468;2023-10-19T14:00:53;16.00;99.90
11083;DHT22;5595;50.186;8.468;2023-10-19T14:03:20;16.00;99.90
11083;DHT22;5595;50.186;8.468;2023-10-19T14:05:47;16.00;99.90
11083;DHT22;5595;50.186;8.468;2023-10-19T14:08:15;15.90;99.90
11083;DHT22;5595;50.186;8.468;2023-10-19T14:10:43;15.80;99.90
11083;DHT22;5595;50.186;8.468;2023-10-19T14:13:10;15.80;99.90
11083;DHT22;5595;50.186;8.468;2023-10-19T14:15:38;15.70;99.90
11083;DHT22;5595;50.186;8.468;2023-10-19T14:18:05;15.60;99.90
11083;DHT22;5595;50.186;8.468;2023-10-19T14:20:33;15.70;99.90
11083;DHT22;5595;50.186;8.468;2023-10-19T14:23:01;15.60;99.90
11083;DHT22;5595;50.186;8.468;2023-10-19T14:25:30;15.60;99.90
11083;DHT22;5595;50.186;8.468;2023-10-19T14:27:58;15.50;99.90
11083;DHT22;5595;50.186;8.468;2023-10-19T14:30:27;15.50;99.90
11083;DHT22;5595;50.186;8.468;2023-10-19T14:32:55;15.50;99.90
11083;DHT22;5595;50.186;8.468;2023-10-19T14:35:23;15.50;99.90
11083;DHT22;5595;50.186;8.468;2023-10-19T14:37:52;15.40;99.90
11083;DHT22;5595;50.186;8.468;2023-10-19T14:40:22;15.40;99.90
11083;DHT22;5595;50.186;8.468;2023-10-19T14:42:51;15.40;99.90
11083;DHT22;5595;50.186;8.468;2023-10-19T14:45:21;15.30;99.90
11083;DHT22;5595;50.186;8.468;2023-10-19T14:47:52;15.40;99.90
11083;DHT22;5595;50.186;8.468;2023-10-19T14:50:21;15.30;99.90
11083;DHT22;5595;50.186;8.468;2023-10-19T14:52:49;15.30;99.90
11083;DHT22;5595;50.186;8.468;2023-10-19T14:55:17;15.30;99.90
11083;DHT22;5595;50.186;8.468;2023-10-19T14:57:45;15.30;99.90
11083;DHT22;5595;50.186;8.468;2023-10-19T15:00:15;15.30;99.90
11083;DHT22;5595;50.186;8.468;2023-10-19T15:02:49;15.30;99.90
11083;DHT22;5595;50.186;8.468;2023-10-19T15:05:18;15.30;99.90
11083;DHT22;5595;50.186;8.468;2023-10-19T15:07:47;15.30;99.90
11083;DHT22;5595;50.186;8.468;2023-10-19T15:10:17;15.40;99.90
11083;DHT22;5595;50.186;8.468;2023-10-19T15:12:44;15.30;99.90
11083;DHT22;5595;50.186;8.468;2023-10-19T15:15:12;15.30;99.90
11083;DHT22;5595;50.186;8.468;2023-10-19T15:17:39;15.30;99.90
11083;DHT22;5595;50.186;8.468;2023-10-19T15:20:09;15.30;99.90
11083;DHT22;5595;50.186;8.468;2023-10-19T15:22:37;15.30;99.90
11083;DHT22;5595;50.186;8.468;2023-10-19T15:25:04;15.20;99.90
11083;DHT22;5595;50.186;8.468;2023-10-19T15:27:33;15.20;99.90
11083;DHT22;5595;50.186;8.468;2023-10-19T15:30:00;15.20;99.90
11083;DHT22;5595;50.186;8.468;2023-10-19T15:32:27;15.20;99.90
11083;DHT22;5595;50.186;8.468;2023-10-19T15:34:56;15.20;99.90
11083;DHT22;5595;50.186;8.468;2023-10-19T15:37:24;15.30;99.90
11083;DHT22;5595;50.186;8.468;2023-10-19T15:39:51;15.30;99.90
11083;DHT22;5595;50.186;8.468;2023-10-19T15:42:19;15.30;99.90
11083;DHT22;5595;50.186;8.468;2023-10-19T15:44:47;15.30;99.90
11083;DHT22;5595;50.186;8.468;2023-10-19T15:47:15;15.30;99.90
11083;DHT22;5595;50.186;8.468;2023-10-19T15:49:47;15.30;99.90
11083;DHT22;5595;50.186;8.468;2023-10-19T15:52:16;15.30;99.90
11083;DHT22;5595;50.186;8.468;2023-10-19T15:54:46;15.30;99.90
11083;DHT22;5595;50.186;8.468;2023-10-19T15:57:13;15.30;99.90